Calvary, Georgia
Current Conditions -  °F | °C
As of 1:15 AM on Tuesday 21 Oct 2014 (Local Time) from K2J9 Reporting Station
Overcast Overcast  
Wind Chill: 59°   Ceiling: 4000
Heat Index: 59°   Visibility: 9mi
Dew Point: 57°   Wind: 0mph
Humidity: 94%   Direction: NA
Pressure: 30"   Gusts: NA
Location:  30.73°N, 84.35°W
Report Text: K2J9 210515Z AUTO 00000KT 9SM OVC040 15/14 A3000 RMK AO1
Loading
Personal Weather Stations






























Interactive Weather Map
Tropical Storm Tracking
New forecast layout! Learn more

10-Day Weather Forecast

Advertisements
Track Severe Weather on mobile